createdAt,value
2022-09-07T00:00:52.190Z,67.97
2022-09-07T00:03:19.656Z,68.38
2022-09-07T00:05:51.796Z,68.82
2022-09-07T00:08:23.034Z,68.55
2022-09-07T00:11:13.046Z,68.84
2022-09-07T00:13:40.695Z,68.33
2022-09-07T00:16:14.225Z,68.32
2022-09-07T00:18:46.084Z,68.57
2022-09-07T00:21:16.426Z,68.33
2022-09-07T00:23:43.664Z,68.17
2022-09-07T00:26:13.673Z,68.51
2022-09-07T00:28:40.680Z,68.48
2022-09-07T00:31:16.581Z,69.20
2022-09-07T00:33:49.198Z,69.10
2022-09-07T00:36:17.265Z,69.37
2022-09-07T00:38:44.360Z,69.25
2022-09-07T00:41:11.629Z,69.42
2022-09-07T00:43:53.203Z,69.55
2022-09-07T00:46:34.998Z,69.65
2022-09-07T00:49:08.341Z,69.47
2022-09-07T00:51:47.157Z,69.71
2022-09-07T00:54:23.373Z,69.59
2022-09-07T00:56:52.936Z,69.94
2022-09-07T00:59:29.308Z,69.78
2022-09-07T01:01:56.467Z,69.98
2022-09-07T01:04:24.264Z,69.79
2022-09-07T01:06:51.587Z,69.85
2022-09-07T01:09:22.316Z,70.22
2022-09-07T01:11:51.346Z,70.10
2022-09-07T01:14:29.141Z,70.18
2022-09-07T01:17:01.907Z,70.03
2022-09-07T01:20:05.826Z,70.26
2022-09-07T01:22:53.975Z,70.08
2022-09-07T01:25:39.937Z,70.16
2022-09-07T01:28:26.468Z,70.19
2022-09-07T01:31:18.382Z,70.30
2022-09-07T01:34:35.382Z,70.16
2022-09-07T01:37:05.378Z,70.21
2022-09-07T01:39:48.357Z,70.13
2022-09-07T01:42:15.826Z,70.14
2022-09-07T01:44:49.074Z,70.26
2022-09-07T01:47:21.234Z,70.32
2022-09-07T01:49:51.297Z,70.56
2022-09-07T01:52:37.085Z,70.45
2022-09-07T01:55:14.138Z,70.34
2022-09-07T01:57:46.569Z,70.37
2022-09-07T02:00:15.872Z,70.27
2022-09-07T02:03:07.941Z,70.47
2022-09-07T02:05:41.757Z,70.56
2022-09-07T02:08:17.726Z,70.68
2022-09-07T02:10:52.307Z,70.86
2022-09-07T02:13:24.056Z,70.80
2022-09-07T02:16:00.682Z,70.71
2022-09-07T02:18:33.671Z,70.59
2022-09-07T02:21:04.236Z,70.89
2022-09-07T02:23:37.183Z,71.03
2022-09-07T02:26:11.591Z,70.72
2022-09-07T02:28:44.017Z,70.97
2022-09-07T02:31:10.900Z,70.87
2022-09-07T02:33:41.305Z,70.84
2022-09-07T02:36:08.555Z,70.81
2022-09-07T02:38:35.494Z,71.00
2022-09-07T02:41:06.050Z,70.97
2022-09-07T02:43:33.439Z,71.08
2022-09-07T02:46:18.866Z,71.10
2022-09-07T02:49:09.484Z,71.45
2022-09-07T02:51:39.371Z,71.19
2022-09-07T02:54:40.238Z,71.21
2022-09-07T02:57:17.778Z,71.32
2022-09-07T03:00:02.810Z,71.42
2022-09-07T03:02:51.817Z,70.92
2022-09-07T03:05:26.588Z,71.52
2022-09-07T03:08:05.331Z,71.13
2022-09-07T03:10:32.598Z,71.27
2022-09-07T03:12:59.339Z,71.25
2022-09-07T03:15:27.813Z,71.22
2022-09-07T03:17:57.239Z,71.13
2022-09-07T03:20:27.575Z,71.55
2022-09-07T03:22:59.109Z,71.39
2022-09-07T03:25:28.355Z,71.67
2022-09-07T03:28:00.915Z,71.30
2022-09-07T03:30:29.974Z,71.61
2022-09-07T03:32:56.746Z,71.48
2022-09-07T03:35:23.869Z,71.33
2022-09-07T03:37:53.248Z,71.04
2022-09-07T03:40:20.327Z,71.14
2022-09-07T03:42:50.652Z,70.93
2022-09-07T03:45:18.209Z,71.15
2022-09-07T03:47:47.233Z,71.15
2022-09-07T03:50:14.582Z,70.96
2022-09-07T03:52:41.403Z,71.13
2022-09-07T03:55:13.454Z,71.14
2022-09-07T03:57:40.528Z,71.54
2022-09-07T04:00:10.520Z,71.25
2022-09-07T04:02:44.803Z,71.14
2022-09-07T04:05:14.078Z,71.16
2022-09-07T04:07:43.502Z,71.31
2022-09-07T04:10:10.547Z,70.97
2022-09-07T04:12:39.958Z,71.06
2022-09-07T04:15:07.385Z,71.18
2022-09-07T04:17:39.723Z,71.36
2022-09-07T04:20:07.652Z,71.28
2022-09-07T04:22:34.836Z,71.27
2022-09-07T04:25:03.704Z,71.06
2022-09-07T04:27:33.280Z,71.09
2022-09-07T04:30:02.586Z,70.73
2022-09-07T04:32:29.863Z,71.12
2022-09-07T04:34:57.177Z,70.80
2022-09-07T04:37:23.902Z,71.10
2022-09-07T04:39:54.024Z,70.94
2022-09-07T04:42:21.176Z,70.51
2022-09-07T04:44:53.851Z,70.60
2022-09-07T04:47:21.231Z,70.84
2022-09-07T04:49:51.642Z,70.54
2022-09-07T04:52:18.804Z,70.71
2022-09-07T04:54:51.123Z,70.61
2022-09-07T04:57:21.708Z,70.77
2022-09-07T04:59:53.424Z,70.58
2022-09-07T05:02:22.713Z,70.33
2022-09-07T05:04:49.670Z,70.48
2022-09-07T05:07:16.412Z,70.45
2022-09-07T05:09:43.387Z,70.16
2022-09-07T05:12:10.794Z,69.99
2022-09-07T05:14:39.757Z,70.03
2022-09-07T05:17:09.393Z,69.77
2022-09-07T05:19:36.240Z,69.76
2022-09-07T05:22:03.063Z,69.98
2022-09-07T05:24:37.788Z,69.57
2022-09-07T05:27:04.853Z,69.67
2022-09-07T05:32:18.829Z,69.26
2022-09-07T05:34:50.889Z,69.60
2022-09-07T05:37:19.220Z,69.46
2022-09-07T05:39:46.083Z,69.73
2022-09-07T05:42:16.471Z,68.88
2022-09-07T05:44:45.981Z,68.58
2022-09-07T05:47:17.196Z,68.39
2022-09-07T05:49:44.129Z,68.47
2022-09-07T05:52:13.439Z,68.14
2022-09-07T05:54:40.444Z,67.44
2022-09-07T05:57:07.476Z,67.48
2022-09-07T05:59:34.277Z,67.75
2022-09-07T06:02:03.557Z,67.30
2022-09-07T06:04:30.471Z,67.15
2022-09-07T06:07:20.569Z,67.16
2022-09-07T06:12:39.388Z,66.48
2022-09-07T06:15:09.933Z,66.40
2022-09-07T06:17:37.601Z,66.35
2022-09-07T06:20:10.101Z,65.82
2022-09-07T06:22:37.740Z,65.93
2022-09-07T06:25:05.359Z,65.83
2022-09-07T06:27:35.594Z,65.43
2022-09-07T06:30:04.561Z,65.13
2022-09-07T06:32:47.356Z,65.20
2022-09-07T06:35:19.941Z,64.61
2022-09-07T06:37:46.759Z,64.32
2022-09-07T06:40:14.137Z,64.29
2022-09-07T06:42:43.601Z,63.81
2022-09-07T06:45:13.714Z,63.79
2022-09-07T06:47:43.509Z,63.54
2022-09-07T06:50:10.606Z,62.74
2022-09-07T06:55:27.927Z,62.67
2022-09-07T06:57:54.845Z,62.67
2022-09-07T07:00:22.570Z,62.33
2022-09-07T07:02:51.755Z,62.16
2022-09-07T07:05:21.296Z,62.59
2022-09-07T07:07:48.594Z,62.40
2022-09-07T07:10:15.506Z,62.21
2022-09-07T07:15:12.591Z,61.62
2022-09-07T07:17:39.352Z,61.91
2022-09-07T07:20:07.244Z,61.31
2022-09-07T07:22:49.428Z,60.43
2022-09-07T07:25:18.357Z,61.26
2022-09-07T07:27:50.364Z,61.03
2022-09-07T07:30:18.288Z,60.70
2022-09-07T07:32:47.779Z,60.87
2022-09-07T07:35:14.958Z,60.85
2022-09-07T07:37:41.741Z,60.00
2022-09-07T07:42:44.113Z,59.70
2022-09-07T07:48:01.225Z,59.31
2022-09-07T07:50:31.999Z,58.91
2022-09-07T07:55:49.639Z,59.12
2022-09-07T07:58:16.583Z,59.04
2022-09-07T08:00:54.267Z,59.01
2022-09-07T08:03:24.863Z,58.84
2022-09-07T08:05:52.423Z,57.95
2022-09-07T08:08:19.726Z,58.46
2022-09-07T08:10:47.974Z,57.64
2022-09-07T08:13:19.148Z,57.87
2022-09-07T08:15:48.835Z,57.35
2022-09-07T08:18:17.532Z,56.90
2022-09-07T08:20:46.890Z,57.44
2022-09-07T08:23:14.730Z,57.64
2022-09-07T08:25:52.668Z,57.31
2022-09-07T08:28:23.914Z,57.33
2022-09-07T08:30:50.684Z,56.06
2022-09-07T08:33:18.166Z,56.41
2022-09-07T08:36:16.591Z,55.87
2022-09-07T08:38:49.035Z,56.07
2022-09-07T08:41:43.961Z,55.33
2022-09-07T08:44:13.774Z,55.60
2022-09-07T08:47:00.279Z,54.43
2022-09-07T08:49:47.612Z,54.37
2022-09-07T08:52:31.682Z,54.00
2022-09-07T08:55:15.371Z,54.18
2022-09-07T08:57:48.215Z,54.05
2022-09-07T09:00:18.008Z,52.88
2022-09-07T09:02:45.739Z,53.58
2022-09-07T09:05:34.390Z,53.14
2022-09-07T09:08:29.688Z,53.30
2022-09-07T09:11:11.238Z,52.93
2022-09-07T09:13:53.248Z,52.83
2022-09-07T09:16:54.578Z,52.21
2022-09-07T09:19:51.722Z,50.99
2022-09-07T09:22:21.207Z,49.94
2022-09-07T09:24:51.854Z,50.41
2022-09-07T09:27:21.362Z,49.39
2022-09-07T09:29:48.344Z,50.57
2022-09-07T09:32:39.913Z,50.04
2022-09-07T09:35:32.181Z,50.56
2022-09-07T09:37:58.908Z,50.17
2022-09-07T09:40:31.717Z,49.58
2022-09-07T09:43:06.140Z,49.32
2022-09-07T09:48:40.411Z,48.67
2022-09-07T09:54:06.095Z,48.43
2022-09-07T09:56:42.160Z,47.85
2022-09-07T10:05:27.192Z,46.01
2022-09-07T10:07:54.057Z,45.58
2022-09-07T10:10:21.144Z,45.38
2022-09-07T10:12:47.884Z,44.78
2022-09-07T10:15:34.465Z,43.90
2022-09-07T10:18:06.484Z,43.46
2022-09-07T10:20:41.600Z,44.95
2022-09-07T10:23:23.104Z,44.45
2022-09-07T10:25:51.215Z,44.39
2022-09-07T10:28:24.287Z,43.44
2022-09-07T10:31:00.235Z,43.24
2022-09-07T10:33:37.677Z,40.51
2022-09-07T10:36:15.713Z,40.78
2022-09-07T10:38:51.059Z,41.87
2022-09-07T10:41:19.520Z,41.51
2022-09-07T10:43:51.177Z,41.26
2022-09-07T10:49:32.746Z,38.64
2022-09-07T10:52:17.767Z,40.20
2022-09-07T10:54:55.176Z,39.79
2022-09-07T10:57:34.997Z,39.00
2022-09-07T11:00:08.305Z,39.26
2022-09-07T11:03:24.947Z,37.61
2022-09-07T11:05:36.031Z,38.66
2022-09-07T11:14:19.412Z,38.27
2022-09-07T11:16:59.200Z,37.53
2022-09-07T11:19:38.352Z,37.40
2022-09-07T11:22:42.275Z,35.81
2022-09-07T11:25:32.791Z,34.91
2022-09-07T11:28:33.237Z,34.28
2022-09-07T11:31:06.259Z,35.32
2022-09-07T11:36:46.323Z,37.00
2022-09-07T11:39:18.837Z,36.92
2022-09-07T11:45:01.784Z,36.28
2022-09-07T11:47:39.842Z,36.07
2022-09-07T11:50:20.926Z,34.47
2022-09-07T11:52:58.365Z,34.38
2022-09-07T11:55:29.989Z,35.93
2022-09-07T11:58:20.122Z,34.74
2022-09-07T12:01:15.981Z,32.43
2022-09-07T12:04:07.673Z,33.24
2022-09-07T12:06:55.026Z,33.34
2022-09-07T12:09:55.311Z,33.55
2022-09-07T12:12:42.129Z,33.10
2022-09-07T12:15:32.916Z,31.89
2022-09-07T12:18:10.208Z,31.87
2022-09-07T12:20:44.391Z,32.42
2022-09-07T12:23:16.992Z,32.47
2022-09-07T12:25:46.179Z,32.38
2022-09-07T12:28:22.981Z,32.17
2022-09-07T12:30:56.525Z,31.35
2022-09-07T12:33:28.169Z,31.84
2022-09-07T12:35:57.995Z,30.85
2022-09-07T12:38:31.903Z,30.86
2022-09-07T12:41:02.151Z,30.55
2022-09-07T12:43:34.493Z,30.48
2022-09-07T12:46:01.964Z,30.71
2022-09-07T12:48:56.123Z,28.52
2022-09-07T12:54:45.013Z,28.25
2022-09-07T12:57:31.189Z,28.16
2022-09-07T13:00:23.454Z,27.74
2022-09-07T13:03:49.459Z,28.09
2022-09-07T13:06:17.742Z,28.83
2022-09-07T13:08:50.543Z,27.95
2022-09-07T13:11:20.790Z,28.35
2022-09-07T13:14:08.464Z,26.93
2022-09-07T13:19:46.395Z,25.73
2022-09-07T13:22:31.468Z,26.73
2022-09-07T13:25:02.103Z,27.08
2022-09-07T13:28:12.372Z,25.03
2022-09-07T13:31:06.152Z,25.64
2022-09-07T13:33:35.911Z,26.64
2022-09-07T13:36:06.261Z,26.00
2022-09-07T13:38:35.075Z,25.05
2022-09-07T13:41:07.509Z,24.51
2022-09-07T13:43:40.649Z,25.21
2022-09-07T13:46:32.239Z,25.26
2022-09-07T13:49:29.181Z,25.22
2022-09-07T13:52:07.005Z,25.25
2022-09-07T13:54:46.862Z,25.07
2022-09-07T13:57:31.226Z,23.75
2022-09-07T14:00:01.255Z,23.40
2022-09-07T14:02:38.657Z,22.98
2022-09-07T14:05:06.604Z,23.12
2022-09-07T14:07:36.292Z,22.34
2022-09-07T14:10:26.169Z,22.02
2022-09-07T14:13:02.661Z,21.85
2022-09-07T14:15:35.624Z,23.15
2022-09-07T14:18:05.135Z,22.73
2022-09-07T14:20:40.568Z,22.02
2022-09-07T14:23:47.135Z,22.30
2022-09-07T14:26:23.866Z,21.79
2022-09-07T14:28:54.191Z,22.20
2022-09-07T14:31:25.493Z,23.47
2022-09-07T14:33:55.175Z,21.99
2022-09-07T14:39:15.798Z,23.11
2022-09-07T14:41:43.288Z,23.70
2022-09-07T14:44:32.652Z,23.10
2022-09-07T14:47:05.998Z,22.12
2022-09-07T14:49:35.290Z,23.13
2022-09-07T14:52:04.748Z,22.79
2022-09-07T14:54:35.084Z,22.67
2022-09-07T14:57:09.268Z,22.49
2022-09-07T14:59:40.923Z,23.76
2022-09-07T15:02:20.177Z,23.03
2022-09-07T15:05:13.211Z,24.82
2022-09-07T15:07:41.947Z,24.14
2022-09-07T15:10:21.021Z,23.59
2022-09-07T15:12:53.144Z,22.68
2022-09-07T15:15:21.850Z,23.76
2022-09-07T15:17:49.222Z,24.82
2022-09-07T15:20:41.553Z,25.99
2022-09-07T15:23:19.358Z,26.61
2022-09-07T15:25:54.114Z,26.63
2022-09-07T15:34:10.390Z,27.31
2022-09-07T15:36:46.183Z,27.29
2022-09-07T15:39:24.990Z,27.54
2022-09-07T15:41:54.811Z,27.75
2022-09-07T15:44:26.132Z,28.10
2022-09-07T15:49:50.358Z,29.27
2022-09-07T15:52:18.483Z,29.19
2022-09-07T15:54:45.474Z,29.66
2022-09-07T16:00:04.672Z,29.93
2022-09-07T16:05:33.984Z,31.11
2022-09-07T16:10:55.836Z,32.00
2022-09-07T16:13:38.749Z,32.41
2022-09-07T16:16:08.468Z,32.53
2022-09-07T16:18:38.427Z,32.91
2022-09-07T16:21:13.321Z,33.30
2022-09-07T16:23:43.652Z,33.17
2022-09-07T16:26:14.283Z,33.33
2022-09-07T16:28:46.688Z,33.50
2022-09-07T16:31:16.003Z,33.89
2022-09-07T16:33:45.571Z,34.24
2022-09-07T16:36:14.517Z,34.63
2022-09-07T16:38:49.505Z,35.60
2022-09-07T16:41:28.591Z,35.31
2022-09-07T16:43:56.075Z,35.46
2022-09-07T16:46:26.496Z,35.79
2022-09-07T16:48:58.167Z,36.20
2022-09-07T16:51:28.580Z,36.58
2022-09-07T16:53:56.288Z,37.09
2022-09-07T16:56:25.088Z,36.97
2022-09-07T16:58:58.018Z,37.12
2022-09-07T17:01:35.592Z,37.64
2022-09-07T17:04:06.856Z,37.54
2022-09-07T17:06:40.136Z,37.42
2022-09-07T17:09:11.485Z,37.76
2022-09-07T17:11:38.389Z,37.85
2022-09-07T17:14:08.102Z,38.30
2022-09-07T17:16:37.322Z,38.61
2022-09-07T17:21:57.709Z,38.32
2022-09-07T17:24:25.281Z,38.68
2022-09-07T17:26:52.053Z,39.55
2022-09-07T17:29:22.183Z,39.40
2022-09-07T17:34:42.925Z,40.99
2022-09-07T17:37:15.121Z,40.66
2022-09-07T17:39:44.853Z,40.45
2022-09-07T17:42:11.825Z,40.71
2022-09-07T17:44:41.666Z,40.79
2022-09-07T17:47:11.758Z,41.17
2022-09-07T17:49:41.160Z,40.93
2022-09-07T17:52:12.920Z,41.35
2022-09-07T17:54:42.165Z,41.30
2022-09-07T17:57:09.266Z,41.94
2022-09-07T18:02:23.023Z,42.13
2022-09-07T18:04:50.730Z,42.98
2022-09-07T18:07:17.784Z,43.33
2022-09-07T18:09:44.697Z,43.27
2022-09-07T18:12:13.556Z,43.45
2022-09-07T18:14:40.773Z,43.11
2022-09-07T18:17:08.232Z,42.97
2022-09-07T18:19:38.562Z,43.35
2022-09-07T18:22:06.119Z,43.98
2022-09-07T18:24:42.941Z,44.56
2022-09-07T18:27:10.138Z,44.96
2022-09-07T18:29:39.144Z,44.82
2022-09-07T18:32:11.957Z,45.38
2022-09-07T18:34:41.150Z,44.85
2022-09-07T18:37:12.236Z,45.06
2022-09-07T18:39:42.115Z,44.71
2022-09-07T18:42:11.229Z,44.67
2022-09-07T18:47:35.930Z,45.13
2022-09-07T18:50:02.854Z,45.02
2022-09-07T18:55:20.475Z,46.80
2022-09-07T18:57:49.937Z,47.43
2022-09-07T19:00:17.977Z,47.89
2022-09-07T19:02:52.113Z,48.58
2022-09-07T19:08:08.605Z,49.45
2022-09-07T19:10:39.289Z,49.55
2022-09-07T19:15:47.546Z,49.27
2022-09-07T19:18:14.687Z,49.74
2022-09-07T19:20:44.354Z,48.89
2022-09-07T19:23:11.120Z,48.89
2022-09-07T19:25:41.154Z,49.33
2022-09-07T19:28:08.522Z,49.19
2022-09-07T19:30:38.040Z,49.26
2022-09-07T19:33:09.984Z,49.47
2022-09-07T19:35:37.343Z,49.58
2022-09-07T19:38:04.783Z,49.92
2022-09-07T19:40:31.695Z,49.66
2022-09-07T19:43:01.156Z,49.77
2022-09-07T19:45:28.506Z,49.72
2022-09-07T19:47:55.221Z,49.83
2022-09-07T19:50:22.433Z,50.08
2022-09-07T19:52:52.194Z,49.73
2022-09-07T19:55:21.425Z,50.19
2022-09-07T19:57:52.460Z,50.07
2022-09-07T20:00:22.688Z,49.87
2022-09-07T20:02:54.270Z,50.09
2022-09-07T20:05:29.513Z,50.00
2022-09-07T20:07:56.251Z,50.41
2022-09-07T20:10:23.598Z,50.38
2022-09-07T20:12:50.320Z,50.21
2022-09-07T20:15:17.027Z,50.17
2022-09-07T20:17:43.869Z,50.67
2022-09-07T20:20:10.679Z,50.99
2022-09-07T20:22:37.450Z,50.56
2022-09-07T20:25:04.495Z,51.32
2022-09-07T20:27:32.169Z,50.89
2022-09-07T20:29:58.850Z,51.43
2022-09-07T20:32:27.902Z,51.50
2022-09-07T20:34:54.787Z,52.09
2022-09-07T20:37:28.797Z,52.18
2022-09-07T20:39:55.983Z,52.38
2022-09-07T20:42:25.126Z,52.44
2022-09-07T20:44:51.855Z,52.17
2022-09-07T20:47:18.646Z,52.49
2022-09-07T20:49:48.498Z,52.56
2022-09-07T20:52:17.590Z,53.23
2022-09-07T20:54:44.503Z,53.29
2022-09-07T20:57:14.937Z,53.34
2022-09-07T20:59:45.542Z,53.41
2022-09-07T21:02:12.379Z,53.53
2022-09-07T21:04:39.364Z,53.42
2022-09-07T21:07:06.574Z,54.17
2022-09-07T21:09:37.453Z,54.44
2022-09-07T21:12:10.173Z,54.22
2022-09-07T21:14:44.437Z,54.45
2022-09-07T21:17:17.945Z,54.75
2022-09-07T21:19:45.363Z,54.73
2022-09-07T21:22:15.380Z,54.88
2022-09-07T21:24:48.340Z,55.37
2022-09-07T21:27:17.377Z,55.30
2022-09-07T21:29:48.309Z,55.82
2022-09-07T21:32:16.065Z,56.37
2022-09-07T21:34:44.074Z,56.57
2022-09-07T21:37:13.592Z,56.60
2022-09-07T21:39:40.743Z,56.27
2022-09-07T21:42:08.676Z,56.49
2022-09-07T21:44:38.391Z,56.63
2022-09-07T21:47:09.942Z,56.62
2022-09-07T21:49:39.871Z,56.69
2022-09-07T21:52:07.074Z,57.28
2022-09-07T21:54:34.026Z,57.02
2022-09-07T21:57:01.251Z,57.11
2022-09-07T21:59:30.145Z,57.50
2022-09-07T22:01:56.966Z,57.54
2022-09-07T22:04:26.394Z,57.54
2022-09-07T22:06:53.386Z,57.51
2022-09-07T22:09:20.408Z,57.62
2022-09-07T22:11:51.153Z,57.81
2022-09-07T22:14:20.395Z,57.66
2022-09-07T22:16:49.461Z,58.80
2022-09-07T22:19:21.092Z,58.10
2022-09-07T22:21:50.241Z,58.28
2022-09-07T22:24:17.084Z,58.25
2022-09-07T22:26:43.889Z,58.10
2022-09-07T22:29:15.714Z,59.11
2022-09-07T22:31:45.309Z,58.36
2022-09-07T22:34:12.436Z,58.34
2022-09-07T22:36:42.237Z,58.80
2022-09-07T22:39:16.738Z,58.26
2022-09-07T22:41:44.574Z,58.19
2022-09-07T22:44:20.481Z,58.24
2022-09-07T22:46:49.638Z,58.34
2022-09-07T22:49:17.160Z,58.63
2022-09-07T22:51:46.646Z,58.82
2022-09-07T22:54:16.135Z,58.65
2022-09-07T22:56:46.021Z,58.60
2022-09-07T22:59:17.942Z,58.72
2022-09-07T23:01:47.062Z,58.78
2022-09-07T23:04:15.145Z,58.93
2022-09-07T23:06:44.387Z,59.29
2022-09-07T23:09:16.050Z,59.19
2022-09-07T23:11:46.131Z,59.54
2022-09-07T23:14:18.312Z,59.64
2022-09-07T23:16:48.271Z,59.84
2022-09-07T23:19:20.446Z,59.74
2022-09-07T23:21:47.933Z,60.03
2022-09-07T23:24:18.293Z,60.31
2022-09-07T23:26:49.049Z,60.27
2022-09-07T23:29:16.289Z,60.33
2022-09-07T23:31:48.202Z,60.60
2022-09-07T23:34:17.472Z,61.08
2022-09-07T23:36:44.206Z,61.14
2022-09-07T23:39:12.320Z,61.20
2022-09-07T23:41:41.511Z,61.05
2022-09-07T23:44:08.541Z,61.20
2022-09-07T23:46:36.109Z,61.38
2022-09-07T23:49:03.926Z,61.38
2022-09-07T23:51:30.645Z,61.38
2022-09-07T23:53:58.008Z,61.82
2022-09-07T23:56:31.205Z,61.70
2022-09-07T23:59:00.816Z,61.83
